sensor_id;sensor_type;location;lat;lon;timestamp;P1;durP1;ratioP1;P2;durP2;ratioP2
77262;SDS011;66373;52.334;4.806;2023-12-29T00:01:04;6.65;;;2.40;;
77262;SDS011;66373;52.334;4.806;2023-12-29T00:03:31;6.18;;;2.35;;
77262;SDS011;66373;52.334;4.806;2023-12-29T00:05:58;7.25;;;2.15;;
77262;SDS011;66373;52.334;4.806;2023-12-29T00:08:29;5.82;;;2.70;;
77262;SDS011;66373;52.334;4.806;2023-12-29T00:10:56;9.45;;;2.60;;
77262;SDS011;66373;52.334;4.806;2023-12-29T00:13:23;7.97;;;2.53;;
77262;SDS011;66373;52.334;4.806;2023-12-29T00:15:51;4.38;;;2.60;;
77262;SDS011;66373;52.334;4.806;2023-12-29T00:18:20;7.03;;;2.70;;
77262;SDS011;66373;52.334;4.806;2023-12-29T00:20:48;5.65;;;2.25;;
77262;SDS011;66373;52.334;4.806;2023-12-29T00:23:15;8.18;;;2.40;;
77262;SDS011;66373;52.334;4.806;2023-12-29T00:25:42;6.82;;;2.53;;
77262;SDS011;66373;52.334;4.806;2023-12-29T00:28:10;7.47;;;2.42;;
77262;SDS011;66373;52.334;4.806;2023-12-29T00:30:38;5.65;;;2.67;;
77262;SDS011;66373;52.334;4.806;2023-12-29T00:33:06;6.63;;;2.58;;
77262;SDS011;66373;52.334;4.806;2023-12-29T00:35:36;7.95;;;2.58;;
77262;SDS011;66373;52.334;4.806;2023-12-29T00:38:03;7.95;;;2.60;;
77262;SDS011;66373;52.334;4.806;2023-12-29T00:40:31;4.47;;;2.65;;
77262;SDS011;66373;52.334;4.806;2023-12-29T00:42:59;5.78;;;2.47;;
77262;SDS011;66373;52.334;4.806;2023-12-29T00:45:27;6.78;;;2.25;;
77262;SDS011;66373;52.334;4.806;2023-12-29T00:47:58;5.05;;;2.35;;
77262;SDS011;66373;52.334;4.806;2023-12-29T00:50:25;5.78;;;2.72;;
77262;SDS011;66373;52.334;4.806;2023-12-29T00:52:54;5.30;;;2.25;;
77262;SDS011;66373;52.334;4.806;2023-12-29T00:55:21;7.75;;;2.42;;
77262;SDS011;66373;52.334;4.806;2023-12-29T00:57:48;7.03;;;2.45;;
77262;SDS011;66373;52.334;4.806;2023-12-29T01:00:15;6.60;;;2.20;;
77262;SDS011;66373;52.334;4.806;2023-12-29T01:02:43;7.43;;;2.60;;
77262;SDS011;66373;52.334;4.806;2023-12-29T01:05:14;5.20;;;2.33;;
77262;SDS011;66373;52.334;4.806;2023-12-29T01:07:42;7.13;;;2.40;;
77262;SDS011;66373;52.334;4.806;2023-12-29T01:10:11;6.75;;;2.67;;
77262;SDS011;66373;52.334;4.806;2023-12-29T01:12:38;3.40;;;2.13;;
77262;SDS011;66373;52.334;4.806;2023-12-29T01:15:06;5.93;;;2.40;;
77262;SDS011;66373;52.334;4.806;2023-12-29T01:17:34;5.90;;;2.50;;
77262;SDS011;66373;52.334;4.806;2023-12-29T01:20:01;2.50;;;1.70;;
77262;SDS011;66373;52.334;4.806;2023-12-29T01:22:29;9.18;;;2.72;;
77262;SDS011;66373;52.334;4.806;2023-12-29T01:24:58;7.07;;;2.60;;
77262;SDS011;66373;52.334;4.806;2023-12-29T01:27:27;4.30;;;1.90;;
77262;SDS011;66373;52.334;4.806;2023-12-29T01:29:56;6.55;;;2.25;;
77262;SDS011;66373;52.334;4.806;2023-12-29T01:32:23;5.25;;;2.30;;
77262;SDS011;66373;52.334;4.806;2023-12-29T01:34:51;4.43;;;2.13;;
77262;SDS011;66373;52.334;4.806;2023-12-29T01:37:18;6.38;;;2.30;;
77262;SDS011;66373;52.334;4.806;2023-12-29T01:39:46;6.22;;;2.40;;
77262;SDS011;66373;52.334;4.806;2023-12-29T01:42:13;5.80;;;2.00;;
77262;SDS011;66373;52.334;4.806;2023-12-29T01:44:41;4.53;;;2.10;;
77262;SDS011;66373;52.334;4.806;2023-12-29T01:47:10;5.50;;;2.30;;
77262;SDS011;66373;52.334;4.806;2023-12-29T01:49:41;6.22;;;2.38;;
77262;SDS011;66373;52.334;4.806;2023-12-29T01:52:10;3.65;;;1.92;;
77262;SDS011;66373;52.334;4.806;2023-12-29T01:54:39;7.13;;;2.58;;
77262;SDS011;66373;52.334;4.806;2023-12-29T01:57:08;4.90;;;1.88;;
77262;SDS011;66373;52.334;4.806;2023-12-29T01:59:35;4.40;;;2.28;;
77262;SDS011;66373;52.334;4.806;2023-12-29T02:02:06;5.05;;;2.33;;
77262;SDS011;66373;52.334;4.806;2023-12-29T02:04:34;4.35;;;2.15;;
77262;SDS011;66373;52.334;4.806;2023-12-29T02:07:04;7.05;;;1.98;;
77262;SDS011;66373;52.334;4.806;2023-12-29T02:09:31;5.28;;;2.25;;
77262;SDS011;66373;52.334;4.806;2023-12-29T02:11:59;8.35;;;2.30;;
77262;SDS011;66373;52.334;4.806;2023-12-29T02:14:27;5.57;;;2.22;;
77262;SDS011;66373;52.334;4.806;2023-12-29T02:16:56;6.90;;;2.40;;
77262;SDS011;66373;52.334;4.806;2023-12-29T02:19:38;4.82;;;1.90;;
77262;SDS011;66373;52.334;4.806;2023-12-29T02:22:06;4.45;;;1.90;;
77262;SDS011;66373;52.334;4.806;2023-12-29T02:24:35;4.90;;;2.03;;
77262;SDS011;66373;52.334;4.806;2023-12-29T02:27:05;5.43;;;2.03;;
77262;SDS011;66373;52.334;4.806;2023-12-29T02:29:40;3.63;;;1.88;;
77262;SDS011;66373;52.334;4.806;2023-12-29T02:32:13;5.63;;;2.25;;
77262;SDS011;66373;52.334;4.806;2023-12-29T02:34:44;8.55;;;2.70;;
77262;SDS011;66373;52.334;4.806;2023-12-29T02:37:16;4.95;;;2.20;;
77262;SDS011;66373;52.334;4.806;2023-12-29T02:39:44;3.95;;;2.00;;
77262;SDS011;66373;52.334;4.806;2023-12-29T02:42:13;6.47;;;2.20;;
77262;SDS011;66373;52.334;4.806;2023-12-29T02:44:40;7.53;;;2.30;;
77262;SDS011;66373;52.334;4.806;2023-12-29T02:47:07;5.97;;;2.22;;
77262;SDS011;66373;52.334;4.806;2023-12-29T02:49:34;7.63;;;2.40;;
77262;SDS011;66373;52.334;4.806;2023-12-29T02:52:02;5.82;;;2.50;;
77262;SDS011;66373;52.334;4.806;2023-12-29T02:54:30;5.63;;;2.40;;
77262;SDS011;66373;52.334;4.806;2023-12-29T02:56:57;9.70;;;2.30;;
77262;SDS011;66373;52.334;4.806;2023-12-29T02:59:26;4.47;;;2.10;;
77262;SDS011;66373;52.334;4.806;2023-12-29T03:01:53;7.22;;;2.42;;
77262;SDS011;66373;52.334;4.806;2023-12-29T03:04:20;8.50;;;2.58;;
77262;SDS011;66373;52.334;4.806;2023-12-29T03:06:48;6.57;;;2.58;;
77262;SDS011;66373;52.334;4.806;2023-12-29T03:09:15;4.28;;;2.28;;
77262;SDS011;66373;52.334;4.806;2023-12-29T03:11:42;6.20;;;2.38;;
77262;SDS011;66373;52.334;4.806;2023-12-29T03:14:09;9.27;;;2.17;;
77262;SDS011;66373;52.334;4.806;2023-12-29T03:16:38;10.10;;;2.97;;
77262;SDS011;66373;52.334;4.806;2023-12-29T03:19:05;5.18;;;2.15;;
77262;SDS011;66373;52.334;4.806;2023-12-29T03:21:33;8.68;;;2.92;;
77262;SDS011;66373;52.334;4.806;2023-12-29T03:24:00;7.00;;;2.60;;
77262;SDS011;66373;52.334;4.806;2023-12-29T03:26:27;6.30;;;3.10;;
77262;SDS011;66373;52.334;4.806;2023-12-29T03:28:54;7.15;;;2.70;;
77262;SDS011;66373;52.334;4.806;2023-12-29T03:31:22;7.88;;;2.55;;
77262;SDS011;66373;52.334;4.806;2023-12-29T03:33:51;8.77;;;2.92;;
77262;SDS011;66373;52.334;4.806;2023-12-29T03:36:18;6.72;;;2.40;;
77262;SDS011;66373;52.334;4.806;2023-12-29T03:38:45;9.13;;;2.65;;
77262;SDS011;66373;52.334;4.806;2023-12-29T03:41:12;9.93;;;2.50;;
77262;SDS011;66373;52.334;4.806;2023-12-29T03:43:40;7.13;;;2.50;;
77262;SDS011;66373;52.334;4.806;2023-12-29T03:46:14;10.27;;;2.88;;
77262;SDS011;66373;52.334;4.806;2023-12-29T03:48:43;8.93;;;2.70;;
77262;SDS011;66373;52.334;4.806;2023-12-29T03:51:11;8.50;;;2.58;;
77262;SDS011;66373;52.334;4.806;2023-12-29T03:53:39;7.93;;;2.70;;
77262;SDS011;66373;52.334;4.806;2023-12-29T03:56:08;7.50;;;2.38;;
77262;SDS011;66373;52.334;4.806;2023-12-29T03:58:42;7.22;;;3.22;;
77262;SDS011;66373;52.334;4.806;2023-12-29T04:01:09;9.00;;;3.25;;
77262;SDS011;66373;52.334;4.806;2023-12-29T04:03:37;7.72;;;2.50;;
77262;SDS011;66373;52.334;4.806;2023-12-29T04:06:05;7.75;;;2.45;;
77262;SDS011;66373;52.334;4.806;2023-12-29T04:08:34;10.30;;;2.58;;
77262;SDS011;66373;52.334;4.806;2023-12-29T04:11:01;12.00;;;3.38;;
77262;SDS011;66373;52.334;4.806;2023-12-29T04:13:29;7.85;;;2.55;;
77262;SDS011;66373;52.334;4.806;2023-12-29T04:15:57;7.38;;;2.15;;
77262;SDS011;66373;52.334;4.806;2023-12-29T04:18:24;7.85;;;2.15;;
77262;SDS011;66373;52.334;4.806;2023-12-29T04:20:52;4.93;;;2.45;;
77262;SDS011;66373;52.334;4.806;2023-12-29T04:23:19;6.18;;;2.50;;
77262;SDS011;66373;52.334;4.806;2023-12-29T04:25:47;7.60;;;2.80;;
77262;SDS011;66373;52.334;4.806;2023-12-29T04:28:15;8.02;;;2.58;;
77262;SDS011;66373;52.334;4.806;2023-12-29T04:30:42;6.60;;;2.28;;
77262;SDS011;66373;52.334;4.806;2023-12-29T04:33:09;7.85;;;3.00;;
77262;SDS011;66373;52.334;4.806;2023-12-29T04:35:36;8.60;;;2.78;;
77262;SDS011;66373;52.334;4.806;2023-12-29T04:38:03;8.18;;;2.78;;
77262;SDS011;66373;52.334;4.806;2023-12-29T04:40:33;6.00;;;2.58;;
77262;SDS011;66373;52.334;4.806;2023-12-29T04:43:02;8.48;;;2.60;;
77262;SDS011;66373;52.334;4.806;2023-12-29T04:45:29;7.18;;;2.50;;
77262;SDS011;66373;52.334;4.806;2023-12-29T04:47:56;7.10;;;3.03;;
77262;SDS011;66373;52.334;4.806;2023-12-29T04:50:24;7.80;;;2.60;;
77262;SDS011;66373;52.334;4.806;2023-12-29T04:52:51;3.53;;;2.00;;
77262;SDS011;66373;52.334;4.806;2023-12-29T04:55:18;6.88;;;2.97;;
77262;SDS011;66373;52.334;4.806;2023-12-29T04:57:45;5.53;;;2.03;;
77262;SDS011;66373;52.334;4.806;2023-12-29T05:00:14;10.25;;;2.60;;
77262;SDS011;66373;52.334;4.806;2023-12-29T05:02:42;9.57;;;2.92;;
77262;SDS011;66373;52.334;4.806;2023-12-29T05:05:09;10.63;;;3.08;;
77262;SDS011;66373;52.334;4.806;2023-12-29T05:07:36;8.80;;;3.22;;
77262;SDS011;66373;52.334;4.806;2023-12-29T05:10:03;7.75;;;2.78;;
77262;SDS011;66373;52.334;4.806;2023-12-29T05:12:31;8.45;;;3.15;;
77262;SDS011;66373;52.334;4.806;2023-12-29T05:14:58;8.90;;;2.53;;
77262;SDS011;66373;52.334;4.806;2023-12-29T05:17:27;8.10;;;2.78;;
77262;SDS011;66373;52.334;4.806;2023-12-29T05:19:54;7.18;;;3.28;;
77262;SDS011;66373;52.334;4.806;2023-12-29T05:22:21;8.90;;;2.85;;
77262;SDS011;66373;52.334;4.806;2023-12-29T05:24:48;11.57;;;3.28;;
77262;SDS011;66373;52.334;4.806;2023-12-29T05:27:16;10.65;;;3.10;;
77262;SDS011;66373;52.334;4.806;2023-12-29T05:29:43;9.27;;;3.53;;
77262;SDS011;66373;52.334;4.806;2023-12-29T05:32:10;6.20;;;2.50;;
77262;SDS011;66373;52.334;4.806;2023-12-29T05:34:39;11.73;;;3.20;;
77262;SDS011;66373;52.334;4.806;2023-12-29T05:37:06;11.50;;;2.97;;
77262;SDS011;66373;52.334;4.806;2023-12-29T05:39:33;10.25;;;2.70;;
77262;SDS011;66373;52.334;4.806;2023-12-29T05:42:00;9.95;;;2.97;;
77262;SDS011;66373;52.334;4.806;2023-12-29T05:44:27;10.63;;;3.10;;
77262;SDS011;66373;52.334;4.806;2023-12-29T05:46:54;8.23;;;2.72;;
77262;SDS011;66373;52.334;4.806;2023-12-29T05:49:24;8.82;;;2.90;;
77262;SDS011;66373;52.334;4.806;2023-12-29T05:51:52;12.40;;;3.25;;
77262;SDS011;66373;52.334;4.806;2023-12-29T05:54:19;11.05;;;2.97;;
77262;SDS011;66373;52.334;4.806;2023-12-29T05:56:47;12.20;;;2.90;;
77262;SDS011;66373;52.334;4.806;2023-12-29T05:59:14;10.10;;;2.88;;
77262;SDS011;66373;52.334;4.806;2023-12-29T06:01:41;11.55;;;3.00;;
77262;SDS011;66373;52.334;4.806;2023-12-29T06:04:08;9.48;;;2.55;;
77262;SDS011;66373;52.334;4.806;2023-12-29T06:06:35;12.02;;;3.67;;
77262;SDS011;66373;52.334;4.806;2023-12-29T06:09:04;9.40;;;3.05;;
77262;SDS011;66373;52.334;4.806;2023-12-29T06:11:31;7.15;;;2.70;;
77262;SDS011;66373;52.334;4.806;2023-12-29T06:13:58;11.45;;;3.30;;
77262;SDS011;66373;52.334;4.806;2023-12-29T06:16:25;9.63;;;2.88;;
77262;SDS011;66373;52.334;4.806;2023-12-29T06:18:55;8.60;;;2.85;;
77262;SDS011;66373;52.334;4.806;2023-12-29T06:21:22;11.20;;;2.78;;
77262;SDS011;66373;52.334;4.806;2023-12-29T06:23:49;8.98;;;3.05;;
77262;SDS011;66373;52.334;4.806;2023-12-29T06:26:18;9.20;;;2.95;;
77262;SDS011;66373;52.334;4.806;2023-12-29T06:28:48;9.73;;;2.70;;
77262;SDS011;66373;52.334;4.806;2023-12-29T06:31:16;10.40;;;3.05;;
77262;SDS011;66373;52.334;4.806;2023-12-29T06:33:43;11.25;;;3.38;;
77262;SDS011;66373;52.334;4.806;2023-12-29T06:36:11;14.90;;;2.95;;
77262;SDS011;66373;52.334;4.806;2023-12-29T06:38:39;9.32;;;3.50;;
77262;SDS011;66373;52.334;4.806;2023-12-29T06:41:06;11.20;;;2.90;;
77262;SDS011;66373;52.334;4.806;2023-12-29T06:43:35;9.70;;;3.45;;
77262;SDS011;66373;52.334;4.806;2023-12-29T06:46:02;9.02;;;2.80;;
77262;SDS011;66373;52.334;4.806;2023-12-29T06:48:29;11.93;;;3.30;;
77262;SDS011;66373;52.334;4.806;2023-12-29T06:50:56;11.63;;;3.30;;
77262;SDS011;66373;52.334;4.806;2023-12-29T06:53:24;8.75;;;2.88;;
77262;SDS011;66373;52.334;4.806;2023-12-29T06:55:51;10.40;;;3.13;;
77262;SDS011;66373;52.334;4.806;2023-12-29T06:58:18;10.30;;;3.28;;
77262;SDS011;66373;52.334;4.806;2023-12-29T07:00:47;9.65;;;3.00;;
77262;SDS011;66373;52.334;4.806;2023-12-29T07:03:14;7.22;;;3.05;;
77262;SDS011;66373;52.334;4.806;2023-12-29T07:05:41;13.18;;;3.50;;
77262;SDS011;66373;52.334;4.806;2023-12-29T07:08:08;7.82;;;2.80;;
77262;SDS011;66373;52.334;4.806;2023-12-29T07:10:35;11.95;;;3.50;;
77262;SDS011;66373;52.334;4.806;2023-12-29T07:13:02;14.73;;;4.45;;
77262;SDS011;66373;52.334;4.806;2023-12-29T07:15:29;7.32;;;3.10;;
77262;SDS011;66373;52.334;4.806;2023-12-29T07:17:58;13.68;;;3.22;;
77262;SDS011;66373;52.334;4.806;2023-12-29T07:20:25;11.20;;;3.35;;
77262;SDS011;66373;52.334;4.806;2023-12-29T07:22:52;8.13;;;2.80;;
77262;SDS011;66373;52.334;4.806;2023-12-29T07:25:19;13.48;;;3.30;;
77262;SDS011;66373;52.334;4.806;2023-12-29T07:27:46;7.80;;;2.45;;
77262;SDS011;66373;52.334;4.806;2023-12-29T07:30:14;10.10;;;3.15;;
77262;SDS011;66373;52.334;4.806;2023-12-29T07:32:42;11.23;;;3.20;;
77262;SDS011;66373;52.334;4.806;2023-12-29T07:35:10;9.50;;;3.28;;
77262;SDS011;66373;52.334;4.806;2023-12-29T07:37:40;9.80;;;3.15;;
77262;SDS011;66373;52.334;4.806;2023-12-29T07:40:09;7.18;;;2.50;;
77262;SDS011;66373;52.334;4.806;2023-12-29T07:42:37;7.93;;;2.90;;
77262;SDS011;66373;52.334;4.806;2023-12-29T07:45:06;6.35;;;2.55;;
77262;SDS011;66373;52.334;4.806;2023-12-29T07:47:34;9.48;;;2.63;;
77262;SDS011;66373;52.334;4.806;2023-12-29T07:50:01;10.30;;;3.30;;
77262;SDS011;66373;52.334;4.806;2023-12-29T07:52:31;9.55;;;3.13;;
77262;SDS011;66373;52.334;4.806;2023-12-29T07:54:58;7.28;;;2.53;;
77262;SDS011;66373;52.334;4.806;2023-12-29T07:57:25;11.48;;;2.60;;
77262;SDS011;66373;52.334;4.806;2023-12-29T07:59:52;7.50;;;2.80;;
77262;SDS011;66373;52.334;4.806;2023-12-29T08:02:20;12.00;;;2.53;;
77262;SDS011;66373;52.334;4.806;2023-12-29T08:04:47;7.70;;;2.90;;
77262;SDS011;66373;52.334;4.806;2023-12-29T08:07:14;6.95;;;2.35;;
77262;SDS011;66373;52.334;4.806;2023-12-29T08:09:43;10.65;;;2.88;;
77262;SDS011;66373;52.334;4.806;2023-12-29T08:12:10;8.85;;;3.08;;
77262;SDS011;66373;52.334;4.806;2023-12-29T08:14:39;9.23;;;2.88;;
77262;SDS011;66373;52.334;4.806;2023-12-29T08:17:06;7.57;;;2.55;;
77262;SDS011;66373;52.334;4.806;2023-12-29T08:19:34;9.23;;;2.88;;
77262;SDS011;66373;52.334;4.806;2023-12-29T08:22:02;12.05;;;2.70;;
77262;SDS011;66373;52.334;4.806;2023-12-29T08:24:29;8.57;;;2.65;;
77262;SDS011;66373;52.334;4.806;2023-12-29T08:26:58;5.97;;;2.47;;
77262;SDS011;66373;52.334;4.806;2023-12-29T08:29:25;9.05;;;2.72;;
77262;SDS011;66373;52.334;4.806;2023-12-29T08:31:52;7.45;;;2.42;;
77262;SDS011;66373;52.334;4.806;2023-12-29T08:34:19;7.97;;;2.67;;
77262;SDS011;66373;52.334;4.806;2023-12-29T08:36:46;8.05;;;2.97;;
77262;SDS011;66373;52.334;4.806;2023-12-29T08:39:13;8.95;;;2.70;;
77262;SDS011;66373;52.334;4.806;2023-12-29T08:41:41;9.00;;;2.75;;
77262;SDS011;66373;52.334;4.806;2023-12-29T08:44:10;7.45;;;2.60;;
77262;SDS011;66373;52.334;4.806;2023-12-29T08:46:37;10.02;;;3.58;;
77262;SDS011;66373;52.334;4.806;2023-12-29T08:49:04;8.25;;;2.53;;
77262;SDS011;66373;52.334;4.806;2023-12-29T08:51:32;9.55;;;2.60;;
77262;SDS011;66373;52.334;4.806;2023-12-29T08:53:59;7.35;;;2.50;;
77262;SDS011;66373;52.334;4.806;2023-12-29T08:56:28;5.82;;;2.38;;
77262;SDS011;66373;52.334;4.806;2023-12-29T08:58:55;7.53;;;2.50;;
77262;SDS011;66373;52.334;4.806;2023-12-29T09:01:24;6.55;;;2.38;;
77262;SDS011;66373;52.334;4.806;2023-12-29T09:03:50;5.68;;;2.53;;
77262;SDS011;66373;52.334;4.806;2023-12-29T09:06:18;5.70;;;2.22;;
77262;SDS011;66373;52.334;4.806;2023-12-29T09:08:45;7.50;;;2.38;;
77262;SDS011;66373;52.334;4.806;2023-12-29T09:11:13;7.43;;;2.33;;
77262;SDS011;66373;52.334;4.806;2023-12-29T09:13:40;6.22;;;2.35;;
77262;SDS011;66373;52.334;4.806;2023-12-29T09:16:07;6.38;;;2.47;;
77262;SDS011;66373;52.334;4.806;2023-12-29T09:18:37;7.63;;;2.20;;
77262;SDS011;66373;52.334;4.806;2023-12-29T09:21:04;7.82;;;2.28;;
77262;SDS011;66373;52.334;4.806;2023-12-29T09:23:31;5.22;;;2.10;;
77262;SDS011;66373;52.334;4.806;2023-12-29T09:25:59;6.05;;;2.22;;
77262;SDS011;66373;52.334;4.806;2023-12-29T09:28:26;6.97;;;2.25;;
77262;SDS011;66373;52.334;4.806;2023-12-29T09:30:53;7.18;;;2.38;;
77262;SDS011;66373;52.334;4.806;2023-12-29T09:33:21;7.05;;;2.75;;
77262;SDS011;66373;52.334;4.806;2023-12-29T09:35:51;6.80;;;2.28;;
77262;SDS011;66373;52.334;4.806;2023-12-29T09:38:18;8.50;;;2.45;;
77262;SDS011;66373;52.334;4.806;2023-12-29T09:40:45;6.60;;;2.25;;
77262;SDS011;66373;52.334;4.806;2023-12-29T09:43:14;5.13;;;2.45;;
77262;SDS011;66373;52.334;4.806;2023-12-29T09:45:42;6.75;;;2.38;;
77262;SDS011;66373;52.334;4.806;2023-12-29T09:48:13;5.30;;;2.20;;
77262;SDS011;66373;52.334;4.806;2023-12-29T09:50:44;8.02;;;2.15;;
77262;SDS011;66373;52.334;4.806;2023-12-29T09:53:14;6.32;;;2.20;;
77262;SDS011;66373;52.334;4.806;2023-12-29T09:55:42;4.57;;;2.25;;
77262;SDS011;66373;52.334;4.806;2023-12-29T09:58:12;5.32;;;2.28;;
77262;SDS011;66373;52.334;4.806;2023-12-29T10:00:39;5.40;;;1.92;;
77262;SDS011;66373;52.334;4.806;2023-12-29T10:03:07;7.45;;;2.47;;
77262;SDS011;66373;52.334;4.806;2023-12-29T10:05:35;4.82;;;2.08;;
77262;SDS011;66373;52.334;4.806;2023-12-29T10:08:03;4.45;;;1.95;;
77262;SDS011;66373;52.334;4.806;2023-12-29T10:10:35;5.45;;;1.90;;
77262;SDS011;66373;52.334;4.806;2023-12-29T10:13:04;5.50;;;1.95;;
77262;SDS011;66373;52.334;4.806;2023-12-29T10:15:35;7.45;;;2.17;;
77262;SDS011;66373;52.334;4.806;2023-12-29T10:18:11;5.22;;;2.20;;
77262;SDS011;66373;52.334;4.806;2023-12-29T10:20:45;10.15;;;3.00;;
77262;SDS011;66373;52.334;4.806;2023-12-29T10:23:17;6.45;;;2.38;;
77262;SDS011;66373;52.334;4.806;2023-12-29T10:25:48;7.18;;;2.13;;
77262;SDS011;66373;52.334;4.806;2023-12-29T10:28:17;6.47;;;2.45;;
77262;SDS011;66373;52.334;4.806;2023-12-29T10:30:44;6.25;;;2.20;;
77262;SDS011;66373;52.334;4.806;2023-12-29T10:33:13;8.55;;;2.42;;
77262;SDS011;66373;52.334;4.806;2023-12-29T10:35:55;5.70;;;2.15;;
77262;SDS011;66373;52.334;4.806;2023-12-29T10:38:24;5.95;;;2.28;;
77262;SDS011;66373;52.334;4.806;2023-12-29T10:40:53;6.07;;;2.03;;
77262;SDS011;66373;52.334;4.806;2023-12-29T10:43:21;8.43;;;2.08;;
77262;SDS011;66373;52.334;4.806;2023-12-29T10:45:49;5.78;;;2.17;;
77262;SDS011;66373;52.334;4.806;2023-12-29T10:48:21;9.55;;;2.67;;
77262;SDS011;66373;52.334;4.806;2023-12-29T10:50:49;7.50;;;2.33;;
77262;SDS011;66373;52.334;4.806;2023-12-29T10:53:17;6.88;;;2.20;;
77262;SDS011;66373;52.334;4.806;2023-12-29T10:55:44;6.60;;;2.00;;
77262;SDS011;66373;52.334;4.806;2023-12-29T10:58:14;8.82;;;2.08;;
77262;SDS011;66373;52.334;4.806;2023-12-29T11:00:43;7.82;;;2.35;;
77262;SDS011;66373;52.334;4.806;2023-12-29T11:03:12;7.57;;;2.33;;
77262;SDS011;66373;52.334;4.806;2023-12-29T11:05:42;11.27;;;2.97;;
77262;SDS011;66373;52.334;4.806;2023-12-29T11:08:14;7.38;;;2.60;;
77262;SDS011;66373;52.334;4.806;2023-12-29T11:10:42;6.00;;;2.22;;
77262;SDS011;66373;52.334;4.806;2023-12-29T11:13:10;9.65;;;2.72;;
77262;SDS011;66373;52.334;4.806;2023-12-29T11:15:41;6.82;;;2.33;;
77262;SDS011;66373;52.334;4.806;2023-12-29T11:18:11;8.02;;;2.78;;
77262;SDS011;66373;52.334;4.806;2023-12-29T11:20:40;8.05;;;3.03;;
77262;SDS011;66373;52.334;4.806;2023-12-29T11:23:08;10.98;;;3.05;;
77262;SDS011;66373;52.334;4.806;2023-12-29T11:25:38;7.45;;;2.40;;
77262;SDS011;66373;52.334;4.806;2023-12-29T11:28:06;5.32;;;2.13;;
77262;SDS011;66373;52.334;4.806;2023-12-29T11:30:38;9.32;;;2.60;;
77262;SDS011;66373;52.334;4.806;2023-12-29T11:33:07;9.80;;;2.63;;
77262;SDS011;66373;52.334;4.806;2023-12-29T11:35:40;9.60;;;2.85;;
77262;SDS011;66373;52.334;4.806;2023-12-29T11:38:19;8.38;;;2.63;;
77262;SDS011;66373;52.334;4.806;2023-12-29T11:41:02;7.68;;;2.35;;
77262;SDS011;66373;52.334;4.806;2023-12-29T11:43:35;4.65;;;2.90;;
77262;SDS011;66373;52.334;4.806;2023-12-29T11:46:04;10.30;;;3.03;;
77262;SDS011;66373;52.334;4.806;2023-12-29T11:51:31;11.50;;;2.90;;
77262;SDS011;66373;52.334;4.806;2023-12-29T11:54:00;6.10;;;2.42;;
77262;SDS011;66373;52.334;4.806;2023-12-29T11:56:31;4.70;;;2.20;;
77262;SDS011;66373;52.334;4.806;2023-12-29T12:01:45;7.32;;;2.30;;
77262;SDS011;66373;52.334;4.806;2023-12-29T12:07:03;8.43;;;2.30;;
77262;SDS011;66373;52.334;4.806;2023-12-29T12:09:32;8.50;;;2.60;;
77262;SDS011;66373;52.334;4.806;2023-12-29T12:12:00;8.82;;;2.63;;
77262;SDS011;66373;52.334;4.806;2023-12-29T12:14:48;6.95;;;2.40;;
77262;SDS011;66373;52.334;4.806;2023-12-29T12:17:28;8.93;;;2.70;;
77262;SDS011;66373;52.334;4.806;2023-12-29T12:19:57;11.50;;;2.92;;
77262;SDS011;66373;52.334;4.806;2023-12-29T12:22:25;11.20;;;3.10;;
77262;SDS011;66373;52.334;4.806;2023-12-29T12:24:55;10.40;;;2.88;;
77262;SDS011;66373;52.334;4.806;2023-12-29T12:27:24;6.43;;;2.35;;
77262;SDS011;66373;52.334;4.806;2023-12-29T12:29:53;12.55;;;2.80;;
77262;SDS011;66373;52.334;4.806;2023-12-29T12:32:24;12.40;;;3.10;;
77262;SDS011;66373;52.334;4.806;2023-12-29T12:34:53;6.13;;;2.50;;
77262;SDS011;66373;52.334;4.806;2023-12-29T12:37:21;14.82;;;2.38;;
77262;SDS011;66373;52.334;4.806;2023-12-29T12:39:49;10.23;;;2.63;;
77262;SDS011;66373;52.334;4.806;2023-12-29T12:42:17;11.23;;;2.53;;
77262;SDS011;66373;52.334;4.806;2023-12-29T12:44:49;6.45;;;2.08;;
77262;SDS011;66373;52.334;4.806;2023-12-29T12:47:24;6.82;;;3.05;;
77262;SDS011;66373;52.334;4.806;2023-12-29T12:49:58;13.18;;;3.20;;
77262;SDS011;66373;52.334;4.806;2023-12-29T12:52:29;8.25;;;2.92;;
77262;SDS011;66373;52.334;4.806;2023-12-29T12:54:57;10.10;;;2.90;;
77262;SDS011;66373;52.334;4.806;2023-12-29T12:57:24;9.73;;;3.15;;
77262;SDS011;66373;52.334;4.806;2023-12-29T12:59:52;19.30;;;5.88;;
77262;SDS011;66373;52.334;4.806;2023-12-29T13:02:20;24.15;;;7.13;;
77262;SDS011;66373;52.334;4.806;2023-12-29T13:04:48;19.40;;;7.20;;
77262;SDS011;66373;52.334;4.806;2023-12-29T13:07:18;26.13;;;7.10;;
77262;SDS011;66373;52.334;4.806;2023-12-29T13:09:45;22.00;;;6.78;;
77262;SDS011;66373;52.334;4.806;2023-12-29T13:12:15;25.55;;;7.90;;
77262;SDS011;66373;52.334;4.806;2023-12-29T13:14:43;30.85;;;10.05;;
77262;SDS011;66373;52.334;4.806;2023-12-29T13:17:12;36.88;;;10.85;;
77262;SDS011;66373;52.334;4.806;2023-12-29T13:19:40;27.75;;;9.95;;
77262;SDS011;66373;52.334;4.806;2023-12-29T13:22:09;39.10;;;10.52;;
77262;SDS011;66373;52.334;4.806;2023-12-29T13:24:44;29.30;;;10.65;;
77262;SDS011;66373;52.334;4.806;2023-12-29T13:27:13;32.70;;;10.43;;
77262;SDS011;66373;52.334;4.806;2023-12-29T13:29:40;29.17;;;9.07;;
77262;SDS011;66373;52.334;4.806;2023-12-29T13:32:10;30.33;;;9.63;;
77262;SDS011;66373;52.334;4.806;2023-12-29T13:34:42;26.05;;;8.60;;
77262;SDS011;66373;52.334;4.806;2023-12-29T13:39:53;25.77;;;9.50;;
77262;SDS011;66373;52.334;4.806;2023-12-29T13:42:24;22.23;;;8.38;;
77262;SDS011;66373;52.334;4.806;2023-12-29T13:44:56;29.52;;;9.95;;
77262;SDS011;66373;52.334;4.806;2023-12-29T13:47:25;27.52;;;9.52;;
77262;SDS011;66373;52.334;4.806;2023-12-29T13:49:52;25.55;;;8.38;;
77262;SDS011;66373;52.334;4.806;2023-12-29T13:52:20;28.52;;;8.25;;
77262;SDS011;66373;52.334;4.806;2023-12-29T13:54:47;25.83;;;8.10;;
77262;SDS011;66373;52.334;4.806;2023-12-29T13:57:16;23.50;;;8.05;;
77262;SDS011;66373;52.334;4.806;2023-12-29T13:59:44;24.80;;;7.32;;
77262;SDS011;66373;52.334;4.806;2023-12-29T14:02:23;26.92;;;8.23;;
77262;SDS011;66373;52.334;4.806;2023-12-29T14:05:11;21.65;;;7.00;;
77262;SDS011;66373;52.334;4.806;2023-12-29T14:07:43;21.95;;;6.90;;
77262;SDS011;66373;52.334;4.806;2023-12-29T14:10:13;18.13;;;5.90;;
77262;SDS011;66373;52.334;4.806;2023-12-29T14:12:42;17.50;;;5.47;;
77262;SDS011;66373;52.334;4.806;2023-12-29T14:15:09;16.58;;;5.85;;
77262;SDS011;66373;52.334;4.806;2023-12-29T14:17:37;16.80;;;5.63;;
77262;SDS011;66373;52.334;4.806;2023-12-29T14:20:06;13.73;;;5.18;;
77262;SDS011;66373;52.334;4.806;2023-12-29T14:22:34;17.25;;;5.15;;
77262;SDS011;66373;52.334;4.806;2023-12-29T14:25:02;14.18;;;4.60;;
77262;SDS011;66373;52.334;4.806;2023-12-29T14:27:33;11.55;;;3.90;;
77262;SDS011;66373;52.334;4.806;2023-12-29T14:30:02;13.98;;;5.28;;
77262;SDS011;66373;52.334;4.806;2023-12-29T14:32:29;14.45;;;4.20;;
77262;SDS011;66373;52.334;4.806;2023-12-29T14:34:56;11.13;;;4.38;;
77262;SDS011;66373;52.334;4.806;2023-12-29T14:37:24;16.70;;;5.10;;
77262;SDS011;66373;52.334;4.806;2023-12-29T14:39:51;11.88;;;4.57;;
77262;SDS011;66373;52.334;4.806;2023-12-29T14:42:20;9.90;;;3.65;;
77262;SDS011;66373;52.334;4.806;2023-12-29T14:44:47;9.63;;;3.63;;
77262;SDS011;66373;52.334;4.806;2023-12-29T14:47:16;11.15;;;3.88;;
77262;SDS011;66373;52.334;4.806;2023-12-29T14:49:44;7.47;;;3.35;;
77262;SDS011;66373;52.334;4.806;2023-12-29T14:52:12;11.95;;;3.80;;
77262;SDS011;66373;52.334;4.806;2023-12-29T14:54:39;9.75;;;3.45;;
77262;SDS011;66373;52.334;4.806;2023-12-29T14:57:06;11.70;;;3.30;;
77262;SDS011;66373;52.334;4.806;2023-12-29T14:59:34;11.27;;;3.70;;
77262;SDS011;66373;52.334;4.806;2023-12-29T15:02:10;7.15;;;3.22;;